• Join FlightAware (Why Join?)
  • Login
  • US Flag 
05:08PM EDT


 

Airport Tracker/Info


-or-


 

Live Flight TrackerFlight Track Log ✈ LYM3612 ✈ 19-Apr-2012 ✈ KDEN - KCPR

Flight Track Log - Related Links

Times and Time Zones

All times are in EDT time to prevent confusion due to time zone crossing. See the LYM3612 flight status page for this flight to view local times or setup timezone preferences in your user account.

Time Position Orientation Groundspeed Altitude Reporting Facility
EDT Latitude Longitude Course Direction KTS MPH feet Rate Location/Type
08:08AM 39.9000 -104.6667 14° North 166 191 7,500  Level Denver TRACON
08:09AM 39.9500 -104.6500 360° North 184 212 9,100 1,740 Climbing Denver TRACON
08:10AM 40.0000 -104.6500 349° North 176 203 11,000 1,500 Climbing Denver TRACON
08:12AM 40.0667 -104.6667 360° North 185 213 12,300 1,200 Climbing Denver TRACON
08:13AM 40.1167 -104.6667 351° North 189 217 13,700 1,200 Climbing Denver TRACON
08:13AM 40.1572 -104.6747 355° North 192 221 14,600 1,140 Climbing Denver Center
08:14AM 40.2136 -104.6814 North 197 227 15,800 1,080 Climbing Denver Center
08:15AM 40.2700 -104.6797 355° North 266 306 16,800 960 Climbing Denver Center
08:16AM 40.3306 -104.6864 North 228 262 17,800 840 Climbing Denver Center
08:17AM 40.3847 -104.6850 355° North 216 249 18,500 720 Climbing Denver Center
08:18AM 40.4411 -104.6917 341° North 216 249 19,300 600 Climbing Denver Center
08:19AM 40.4978 -104.7175 331° Northwest 211 243 19,800 300 Climbing Denver Center
08:20AM 40.5483 -104.7544 329° Northwest 205 236 20,000  Climbing Denver Center
08:21AM 40.6011 -104.7967 330° Northwest 220 253 19,900  Descending Denver Center
08:22AM 40.6581 -104.8392 333° Northwest 225 259 20,100  Climbing Denver Center
08:23AM 40.7253 -104.8842 325° Northwest 237 273 20,000 -60 Descending Denver Center
08:24AM 40.7825 -104.9375 330° Northwest 243 280 20,000  Level Denver Center
08:25AM 40.8414 -104.9828 334° Northwest 248 285 20,000  Level Denver Center
08:26AM 40.9044 -105.0228 331° Northwest 253 291 20,000  Level Denver Center
08:27AM 40.9656 -105.0681 327° Northwest 253 291 20,000  Level Denver Center
08:28AM 41.0222 -105.1164 327° Northwest 253 291 20,100  Climbing Denver Center
08:29AM 41.0750 -105.1622 334° Northwest 253 291 20,100  Level Denver Center
08:30AM 41.1400 -105.2050 332° Northwest 253 291 20,100 -120 Level Denver Center
08:31AM 41.2114 -105.2561 336° Northwest 260 299 19,900 -240 Descending Denver Center
08:32AM 41.2744 -105.2936 335° Northwest 260 299 19,700  Descending Denver Center
08:33AM 41.3311 -105.3286 328° Northwest 254 292 19,900  Climbing Denver Center
08:34AM 41.3942 -105.3803 331° Northwest 259 298 19,800 60 Descending Denver Center
08:35AM 41.4611 -105.4289 333° Northwest 254 292 20,100 -60 Climbing Denver Center
08:36AM 41.5219 -105.4694 337° Northwest 249 287 19,700 -180 Descending Denver Center
08:37AM 41.5786 -105.5019 335° Northwest 249 287 19,800 120 Climbing Denver Center
08:38AM 41.6394 -105.5400 327° Northwest 237 273 20,000 60 Climbing Denver Center
08:39AM 41.7022 -105.5947 343° North 237 273 20,000 -120 Level Denver Center
08:40AM 41.7672 -105.6217 348° North 237 273 19,800 -360 Descending Denver Center
08:41AM 41.8339 -105.6403 338° Northwest 256 295 19,300 -480 Descending Denver Center
08:42AM 41.9031 -105.6786 335° Northwest 261 300 18,900 -720 Descending Denver Center
08:43AM 41.9783 -105.7250 332° Northwest 272 313 17,900 -780 Descending Denver Center
08:44AM 42.0475 -105.7747 343° North 277 319 17,400 -540 Descending Denver Center
08:45AM 42.1142 -105.8019 344° North 277 319 16,900 -540 Descending Denver Center
08:46AM 42.1894 -105.8319 331° Northwest 277 319 16,400 -540 Descending Denver Center
08:47AM 42.2606 -105.8844 329° Northwest 270 311 15,900 -420 Descending Denver Center
08:48AM 42.3256 -105.9372 326° Northwest 270 311 15,600 -300 Descending Denver Center
08:49AM 42.3800 -105.9875 324° Northwest 270 311 15,300 -300 Descending Denver Center
08:50AM 42.4406 -106.0461 331° Northwest 275 316 15,000 -420 Descending Denver Center
08:51AM 42.5158 -106.1019 334° Northwest 268 308 14,500 -660 Descending Denver Center
08:52AM 42.5847 -106.1467 331° Northwest 273 314 13,700 -1,080 Descending Denver Center
08:53AM 42.6472 -106.1942 331° Northwest 279 321 12,400 -1,200 Descending Denver Center
08:54AM 42.7097 -106.2419 332° Northwest 272 313 11,300 -1,320 Descending Denver Center
08:55AM 42.7786 -106.2928 333° Northwest 260 299 9,800 -1,800 Descending Denver Center
08:56AM 42.8392 -106.3350 339° North 249 287 7,800 -1,500 Descending Denver Center
08:57AM 42.8975 -106.3661 333° Northwest 249 287 6,900 -600 Descending Denver Center
08:58AM 42.9581 -106.4083 334° Northwest 244 281 6,700 4,020 Descending Denver Center
08:59AM 43.0206 -106.4508 333° Northwest 244 281 15,000 4,140 Climbing Denver Center
09:00AM 43.0831 -106.4936 333° Northwest 244 281 15,000  Level Denver Center